Time;durP1;ratioP1;P1;durP2;ratioP2;P2;SDS_P1;SDS_P2;PMS_P1;PMS_P2;Temp;Humidity;BMP_temperature;BMP_pressure;BME280_temperature;BME280_humidity;BME280_pressure;Samples;Min_cycle;Max_cycle;Signal;HPM_P1;HPM_P2
2019/07/09 00:01:56;;;;;;;4.4;3.1;;;;;;;14.3;64.06543;1005.207;;;;
2019/07/09 00:04:20;;;;;;;4.6;3.4;;;;;;;14.16;64.62109;1005.19;;;;
2019/07/09 00:06:49;;;;;;;6.9;3.7;;;;;;;14.13;64.60449;1005.214;;;;
2019/07/09 00:09:09;;;;;;;4.4;3.6;;;;;;;13.97;65.25098;1005.23;;;;
2019/07/09 00:11:37;;;;;;;4.4;3.5;;;;;;;13.89;65.73535;1005.171;;;;
2019/07/09 00:14:00;;;;;;;4;3.4;;;;;;;13.85;66.03125;1005.156;;;;
2019/07/09 00:16:26;;;;;;;4.4;3.6;;;;;;;14.03;65.59668;1005.154;;;;
2019/07/09 00:18:50;;;;;;;6.5;3.5;;;;;;;14.33;64.71582;1005.135;;;;
2019/07/09 00:21:15;;;;;;;6.7;5.7;;;;;;;14.32;64.63379;1005.109;;;;
2019/07/09 00:23:42;;;;;;;5.7;4;;;;;;;14.13;65.05762;1005.047;;;;
2019/07/09 00:26:07;;;;;;;5;4;;;;;;;13.85;66.26074;1005.031;;;;
2019/07/09 00:28:34;;;;;;;5.7;3.9;;;;;;;13.72;66.75879;1005.05;;;;
2019/07/09 00:30:59;;;;;;;4.5;3.8;;;;;;;13.61;67.30664;1005.043;;;;
2019/07/09 00:33:25;;;;;;;4.8;4.2;;;;;;;13.54;67.58594;1005.058;;;;
2019/07/09 00:35:52;;;;;;;5.2;4.2;;;;;;;13.5;67.83203;1005.058;;;;
2019/07/09 00:38:17;;;;;;;4.9;4.1;;;;;;;13.38;68.40039;1005.068;;;;
2019/07/09 00:40:43;;;;;;;4.8;4.1;;;;;;;13.24;68.92188;1005.026;;;;
2019/07/09 00:43:10;;;;;;;5.1;4.4;;;;;;;13.3;68.87305;1005.001;;;;
2019/07/09 00:45:35;;;;;;;6.2;4.4;;;;;;;13.54;67.87207;1004.979;;;;
2019/07/09 00:48:00;;;;;;;6.2;4.5;;;;;;;13.57;67.69434;1004.945;;;;
2019/07/09 00:50:25;;;;;;;6.1;4;;;;;;;13.6;67.58203;1004.966;;;;
2019/07/09 00:52:49;;;;;;;4.2;3.8;;;;;;;13.48;68.0127;1004.993;;;;
2019/07/09 00:55:15;;;;;;;5.8;4.4;;;;;;;13.45;68.1709;1004.982;;;;
2019/07/09 00:57:40;;;;;;;6.3;4.2;;;;;;;13.38;68.56152;1004.973;;;;
2019/07/09 01:00:05;;;;;;;4.2;3.8;;;;;;;13.32;69.02539;1004.951;;;;
2019/07/09 01:02:32;;;;;;;4;3.6;;;;;;;13.37;68.84961;1004.959;;;;
2019/07/09 01:04:57;;;;;;;6.3;4;;;;;;;13.43;68.69629;1004.918;;;;
2019/07/09 01:07:20;;;;;;;4.4;3.9;;;;;;;13.39;68.95508;1004.915;;;;
2019/07/09 01:09:45;;;;;;;5.3;3.9;;;;;;;13.54;68.54199;1004.897;;;;
2019/07/09 01:12:10;;;;;;;5;4;;;;;;;13.54;68.44824;1004.947;;;;
2019/07/09 01:14:35;;;;;;;5.7;4.3;;;;;;;13.32;69.30176;1004.931;;;;
2019/07/09 01:17:00;;;;;;;5.1;4.1;;;;;;;13.29;69.59863;1004.94;;;;
2019/07/09 01:19:25;;;;;;;6.7;4.4;;;;;;;13.48;69.1416;1004.918;;;;
2019/07/09 01:21:51;;;;;;;4.2;3.8;;;;;;;13.52;69.03516;1004.968;;;;
2019/07/09 01:24:16;;;;;;;5.4;4.2;;;;;;;13.56;69.01758;1004.943;;;;
2019/07/09 01:26:41;;;;;;;5.6;3.8;;;;;;;13.77;68.52051;1004.911;;;;
2019/07/09 01:29:06;;;;;;;4.2;3.8;;;;;;;13.96;67.82422;1004.894;;;;
2019/07/09 01:31:31;;;;;;;4.8;4.3;;;;;;;14.21;66.8125;1004.871;;;;
2019/07/09 01:33:56;;;;;;;4.4;3.9;;;;;;;14.22;66.59375;1004.856;;;;
2019/07/09 01:36:21;;;;;;;9;6.3;;;;;;;14.32;66.26172;1004.874;;;;
2019/07/09 01:38:46;;;;;;;5.6;4.4;;;;;;;14.48;65.5127;1004.915;;;;
2019/07/09 01:41:11;;;;;;;5.4;3.7;;;;;;;14.22;66.5127;1004.8;;;;
2019/07/09 01:43:37;;;;;;;4.9;3.8;;;;;;;14.36;66.0957;1004.882;;;;
2019/07/09 01:46:02;;;;;;;4.4;3.7;;;;;;;14.52;65.31152;1004.912;;;;
2019/07/09 01:48:27;;;;;;;5.4;3.6;;;;;;;14.35;65.71191;1004.964;;;;
2019/07/09 01:50:52;;;;;;;3.9;3.3;;;;;;;14.18;66.3457;1004.983;;;;
2019/07/09 01:53:17;;;;;;;4.6;3.9;;;;;;;14.42;65.65332;1004.971;;;;
2019/07/09 01:55:43;;;;;;;5.1;4;;;;;;;14.59;65.04395;1004.975;;;;
2019/07/09 01:58:08;;;;;;;5.7;3.7;;;;;;;14.77;64.35352;1005.007;;;;
2019/07/09 02:00:33;;;;;;;6.5;3.9;;;;;;;14.68;64.53711;1004.949;;;;
2019/07/09 02:02:59;;;;;;;5.2;3.6;;;;;;;14.82;64.46484;1004.998;;;;
2019/07/09 02:05:23;;;;;;;4.5;3.5;;;;;;;14.71;64.39063;1004.976;;;;
2019/07/09 02:07:48;;;;;;;6.1;3.6;;;;;;;14.73;64.55664;1004.941;;;;
2019/07/09 02:10:13;;;;;;;4.4;3.9;;;;;;;14.54;65.38379;1004.941;;;;
2019/07/09 02:12:38;;;;;;;4.2;3.8;;;;;;;14.51;65.63281;1004.977;;;;
2019/07/09 02:15:03;;;;;;;5.6;3.8;;;;;;;14.74;64.80078;1005.028;;;;
2019/07/09 02:17:28;;;;;;;4.1;3.7;;;;;;;14.75;64.79004;1005;;;;
2019/07/09 02:19:54;;;;;;;4.2;3.4;;;;;;;14.6;65.47363;1004.935;;;;
2019/07/09 02:22:19;;;;;;;5.2;3.7;;;;;;;14.68;65.26563;1004.863;;;;
2019/07/09 02:24:44;;;;;;;4.3;3.8;;;;;;;14.64;65.00391;1004.85;;;;
2019/07/09 02:27:09;;;;;;;4.7;3.9;;;;;;;14.79;64.47168;1004.868;;;;
2019/07/09 02:29:34;;;;;;;4.3;3.6;;;;;;;14.74;64.61426;1004.841;;;;
2019/07/09 02:31:59;;;;;;;5.7;3.7;;;;;;;14.79;64.67969;1004.856;;;;
2019/07/09 02:34:24;;;;;;;5.8;4.9;;;;;;;14.67;65.04395;1004.856;;;;
2019/07/09 02:36:49;;;;;;;10.7;7.1;;;;;;;14.78;64.69141;1004.885;;;;
2019/07/09 02:39:14;;;;;;;7.4;5.6;;;;;;;14.83;64.69824;1004.913;;;;
2019/07/09 02:41:40;;;;;;;4.2;3.6;;;;;;;14.81;64.83301;1004.917;;;;
2019/07/09 02:44:05;;;;;;;4.6;3.6;;;;;;;14.6;65.69238;1004.945;;;;
2019/07/09 02:46:30;;;;;;;6.8;3.8;;;;;;;14.57;65.72363;1004.998;;;;
2019/07/09 02:48:55;;;;;;;4.9;3.6;;;;;;;14.57;65.75781;1005.076;;;;
2019/07/09 02:51:20;;;;;;;5.5;3.8;;;;;;;14.21;67.00879;1005.083;;;;
2019/07/09 02:53:45;;;;;;;5.4;3.6;;;;;;;14.33;66.77344;1005.16;;;;
2019/07/09 02:56:10;;;;;;;5.9;3.9;;;;;;;14.12;67.74414;1005.151;;;;
2019/07/09 02:58:35;;;;;;;4.3;3.6;;;;;;;14.36;67.04297;1005.155;;;;
2019/07/09 03:01:00;;;;;;;4;3.5;;;;;;;14.5;66.07031;1005.158;;;;
2019/07/09 03:03:26;;;;;;;4.4;4;;;;;;;14.3;67.31055;1005.216;;;;
2019/07/09 03:05:51;;;;;;;5;3.8;;;;;;;14.32;67.5791;1005.325;;;;
2019/07/09 03:08:16;;;;;;;5.8;3.6;;;;;;;14.18;68.01953;1005.274;;;;
2019/07/09 03:10:41;;;;;;;5.4;3.9;;;;;;;14.09;68.41992;1005.334;;;;
2019/07/09 03:13:06;;;;;;;4.7;3.6;;;;;;;14.27;67.87012;1005.408;;;;
2019/07/09 03:15:31;;;;;;;5.2;4;;;;;;;14.18;68.08691;1005.434;;;;
2019/07/09 03:17:56;;;;;;;4.8;4.3;;;;;;;14.05;68.56348;1005.409;;;;
2019/07/09 03:20:21;;;;;;;4.4;4;;;;;;;13.99;68.80762;1005.451;;;;
2019/07/09 03:22:47;;;;;;;6.3;3.9;;;;;;;13.89;69.46094;1005.518;;;;
2019/07/09 03:25:12;;;;;;;4.9;4.2;;;;;;;13.76;68.32227;1005.541;;;;
2019/07/09 03:27:37;;;;;;;7.1;4;;;;;;;13.99;69.1543;1005.624;;;;
2019/07/09 03:30:02;;;;;;;6;4.3;;;;;;;14.06;69.04004;1005.599;;;;
2019/07/09 03:32:27;;;;;;;5.4;4.3;;;;;;;13.91;69.4082;1005.674;;;;
2019/07/09 03:34:52;;;;;;;4.7;4;;;;;;;13.74;69.41406;1005.663;;;;
2019/07/09 03:37:18;;;;;;;6.5;4.4;;;;;;;13.52;70.42969;1005.613;;;;
2019/07/09 03:39:42;;;;;;;5.9;3.8;;;;;;;13.42;69.74414;1005.652;;;;
2019/07/09 03:42:07;;;;;;;5.6;4.1;;;;;;;13.49;70.5293;1005.711;;;;
2019/07/09 03:44:33;;;;;;;6.3;4;;;;;;;13.43;69.57227;1005.768;;;;
2019/07/09 03:46:58;;;;;;;5.3;3.9;;;;;;;13.26;69.82129;1005.768;;;;
2019/07/09 03:49:23;;;;;;;4.8;3.8;;;;;;;13.55;69.61621;1005.799;;;;
2019/07/09 03:51:48;;;;;;;6;3.9;;;;;;;13.72;68.96289;1005.82;;;;
2019/07/09 03:54:14;;;;;;;6;4.1;;;;;;;13.84;68.08008;1005.811;;;;
2019/07/09 03:56:39;;;;;;;9.5;5;;;;;;;13.94;67.90039;1005.814;;;;
2019/07/09 03:59:06;;;;;;;9.8;5.5;;;;;;;13.82;68.72363;1005.84;;;;
2019/07/09 04:02:28;;;;;;;6.5;4.3;;;;;;;13.76;69.12988;1005.848;;;;
2019/07/09 04:04:53;;;;;;;7;4.1;;;;;;;13.83;69.11816;1005.853;;;;
2019/07/09 04:07:18;;;;;;;5.2;3.9;;;;;;;13.95;68.88184;1005.818;;;;
2019/07/09 04:09:43;;;;;;;6.4;3.9;;;;;;;13.78;69.65332;1005.822;;;;
2019/07/09 04:12:09;;;;;;;4.3;3.9;;;;;;;13.87;69.53906;1005.765;;;;
2019/07/09 04:14:34;;;;;;;4.8;3.8;;;;;;;13.84;69.55762;1005.775;;;;
2019/07/09 04:16:59;;;;;;;4.8;3.9;;;;;;;14.04;68.75879;1005.805;;;;
2019/07/09 04:19:24;;;;;;;5.5;3.9;;;;;;;14.02;68.8125;1005.846;;;;
2019/07/09 04:21:49;;;;;;;6.2;4.1;;;;;;;13.78;69.7666;1005.857;;;;
2019/07/09 04:24:14;;;;;;;5.8;4.2;;;;;;;13.75;70.05078;1005.89;;;;
2019/07/09 04:26:39;;;;;;;5.3;4.2;;;;;;;13.65;70.66895;1005.9;;;;
2019/07/09 04:29:04;;;;;;;5.9;4.1;;;;;;;13.75;70.60352;1005.934;;;;
2019/07/09 04:31:29;;;;;;;6.1;4.2;;;;;;;13.96;69.77441;1005.96;;;;
2019/07/09 04:33:54;;;;;;;4.8;4.1;;;;;;;14.26;68.70215;1005.943;;;;
2019/07/09 04:36:19;;;;;;;4.9;4.1;;;;;;;14.46;67.80859;1005.943;;;;
2019/07/09 04:38:44;;;;;;;6.8;4.2;;;;;;;14.38;68.08496;1005.927;;;;
2019/07/09 04:41:10;;;;;;;4.9;4.4;;;;;;;14.35;68.31055;1005.959;;;;
2019/07/09 04:43:34;;;;;;;4.4;3.9;;;;;;;14.46;67.98047;1005.879;;;;
2019/07/09 04:46:00;;;;;;;5.3;4.2;;;;;;;14.63;67.16504;1005.89;;;;
2019/07/09 04:48:25;;;;;;;5;4.1;;;;;;;14.77;66.57324;1005.829;;;;
2019/07/09 04:50:50;;;;;;;7;4.2;;;;;;;15.06;65.46094;1005.796;;;;
2019/07/09 04:53:15;;;;;;;6.1;3.6;;;;;;;15.35;63.63965;1005.797;;;;
2019/07/09 04:55:40;;;;;;;4.2;3.3;;;;;;;15.5;63.18848;1005.838;;;;
2019/07/09 04:58:05;;;;;;;6.6;3.7;;;;;;;15.9;61.21777;1005.829;;;;
2019/07/09 05:00:30;;;;;;;5.1;3.6;;;;;;;15.45;62.3125;1005.867;;;;
2019/07/09 05:02:55;;;;;;;5.4;3.5;;;;;;;15.74;61.33398;1005.851;;;;
2019/07/09 05:05:21;;;;;;;4.1;3.6;;;;;;;15.45;62.18555;1005.857;;;;
2019/07/09 05:07:46;;;;;;;10.2;4.4;;;;;;;15.07;63.49512;1005.827;;;;
2019/07/09 05:10:11;;;;;;;5;3.7;;;;;;;15.03;64.20703;1005.861;;;;
2019/07/09 05:12:36;;;;;;;7.4;4.4;;;;;;;15.07;63.88867;1005.9;;;;
2019/07/09 05:15:01;;;;;;;5.8;4.2;;;;;;;14.94;64.63379;1005.951;;;;
2019/07/09 05:17:26;;;;;;;7.1;4.2;;;;;;;15.08;64.19238;1005.92;;;;
2019/07/09 05:19:51;;;;;;;8.6;4.7;;;;;;;15.32;63.17285;1005.981;;;;
2019/07/09 05:22:16;;;;;;;6.4;4.4;;;;;;;15.32;62.94141;1005.994;;;;
2019/07/09 05:24:41;;;;;;;7.9;4.3;;;;;;;15.43;62.66895;1005.934;;;;
2019/07/09 05:27:07;;;;;;;7.6;4.3;;;;;;;15.83;60.92969;1005.924;;;;
2019/07/09 05:29:32;;;;;;;6.3;4.1;;;;;;;15.58;62.15723;1005.916;;;;
2019/07/09 05:31:57;;;;;;;7.3;3.9;;;;;;;15.59;62.19434;1005.953;;;;
2019/07/09 05:34:22;;;;;;;5.8;3.9;;;;;;;15.55;62.23438;1005.923;;;;
2019/07/09 05:36:47;;;;;;;8.5;4.3;;;;;;;15.9;61.64551;1005.926;;;;
2019/07/09 05:39:12;;;;;;;6.6;4.5;;;;;;;16.24;60.10547;1005.993;;;;
2019/07/09 05:41:37;;;;;;;6.8;5.4;;;;;;;16;60.55957;1006;;;;
2019/07/09 05:44:02;;;;;;;8.2;5.6;;;;;;;15.96;61.07617;1005.969;;;;
2019/07/09 05:46:28;;;;;;;9.4;6;;;;;;;16.16;60.51074;1005.992;;;;
2019/07/09 05:48:53;;;;;;;8.8;5.9;;;;;;;16.21;60.28613;1006.002;;;;
2019/07/09 05:51:18;;;;;;;9.1;5.6;;;;;;;16.64;59.76563;1005.945;;;;
2019/07/09 05:53:43;;;;;;;8.4;5.4;;;;;;;16.71;58.95117;1005.919;;;;
2019/07/09 05:56:08;;;;;;;9.5;5.4;;;;;;;17.44;57.10645;1005.916;;;;
2019/07/09 05:58:33;;;;;;;10.1;5.3;;;;;;;17.45;56.88672;1005.961;;;;
2019/07/09 06:00:58;;;;;;;9.8;5.4;;;;;;;17.74;56.02637;1005.964;;;;
2019/07/09 06:03:23;;;;;;;8.8;5.1;;;;;;;17.93;55.33008;1006.044;;;;
2019/07/09 06:05:48;;;;;;;7.3;4.4;;;;;;;18.06;55.1377;1005.99;;;;
2019/07/09 06:08:14;;;;;;;7.1;4;;;;;;;18.7;53.57227;1005.958;;;;
2019/07/09 06:10:39;;;;;;;9.3;4.1;;;;;;;19.06;51.23535;1005.962;;;;
2019/07/09 06:13:04;;;;;;;5.9;3.7;;;;;;;18.93;51.41797;1005.92;;;;
2019/07/09 06:15:29;;;;;;;7.2;3.6;;;;;;;18.74;52.08398;1005.897;;;;
2019/07/09 06:17:54;;;;;;;8.5;3.8;;;;;;;18.72;52.52441;1005.96;;;;
2019/07/09 06:20:20;;;;;;;8.2;4.2;;;;;;;19.33;50.83496;1006.066;;;;
2019/07/09 06:22:44;;;;;;;5.7;3.7;;;;;;;18.5;52.18359;1006.091;;;;
2019/07/09 06:25:10;;;;;;;7.7;4.2;;;;;;;18.15;53.78418;1006.043;;;;
2019/07/09 06:27:35;;;;;;;6.1;3.4;;;;;;;17.64;55.08398;1006.027;;;;
2019/07/09 06:30:00;;;;;;;8;3.8;;;;;;;17.72;54.82617;1006.09;;;;
2019/07/09 06:32:25;;;;;;;8;3.4;;;;;;;17.83;54.98047;1006.092;;;;
2019/07/09 06:34:50;;;;;;;6.8;3.8;;;;;;;17.84;54.45703;1006.14;;;;
2019/07/09 06:37:15;;;;;;;6.3;3.9;;;;;;;17.98;54.35742;1006.157;;;;
2019/07/09 06:39:40;;;;;;;6.4;3.2;;;;;;;18.17;54.00977;1006.094;;;;
2019/07/09 06:42:05;;;;;;;6;3.4;;;;;;;18.34;52.8877;1006.085;;;;
2019/07/09 06:44:31;;;;;;;6.3;3.4;;;;;;;18;53.97559;1006.088;;;;
2019/07/09 06:46:56;;;;;;;5;3.1;;;;;;;18.5;52.73145;1006.069;;;;
2019/07/09 06:49:21;;;;;;;6.3;3;;;;;;;18.57;52.35645;1006.044;;;;
2019/07/09 06:51:46;;;;;;;7.4;3.2;;;;;;;18.46;52.41309;1006.01;;;;
2019/07/09 06:54:11;;;;;;;5.3;3.1;;;;;;;18.32;52.81543;1006.033;;;;
2019/07/09 06:56:36;;;;;;;4.4;2.8;;;;;;;18.43;52.75781;1006.039;;;;
2019/07/09 06:59:01;;;;;;;3.9;2.7;;;;;;;19.1;51.09961;1005.995;;;;
2019/07/09 07:01:27;;;;;;;5.2;2.8;;;;;;;20.11;48.12598;1006.081;;;;
2019/07/09 07:03:52;;;;;;;4.6;2.6;;;;;;;20.55;47.52051;1006.108;;;;
2019/07/09 07:06:17;;;;;;;5.9;2.4;;;;;;;20.75;46.32129;1006.09;;;;
2019/07/09 07:08:42;;;;;;;5;2.6;;;;;;;21.45;44.56445;1006.06;;;;
2019/07/09 07:11:08;;;;;;;5;2.4;;;;;;;22.21;42.75977;1006.092;;;;
2019/07/09 07:13:32;;;;;;;7.7;2.7;;;;;;;22.23;42.41992;1006.068;;;;
2019/07/09 07:15:57;;;;;;;4.1;2.2;;;;;;;23.25;40.23242;1006.048;;;;
2019/07/09 07:18:22;;;;;;;4.7;2.4;;;;;;;23.86;39.22559;1006.04;;;;
2019/07/09 07:20:47;;;;;;;4.5;2.2;;;;;;;23.9;39.16895;1006.044;;;;
2019/07/09 07:23:12;;;;;;;3.8;1.9;;;;;;;25.68;35.0127;1006.022;;;;
2019/07/09 07:25:37;;;;;;;5.3;2.8;;;;;;;24.52;36.90723;1006.107;;;;
2019/07/09 07:28:03;;;;;;;3.7;2;;;;;;;23.88;37.57422;1006.04;;;;
2019/07/09 07:30:28;;;;;;;3.6;2.3;;;;;;;23.17;39.58887;1006.082;;;;
2019/07/09 07:32:53;;;;;;;5.6;2.2;;;;;;;22.79;40.42578;1006.063;;;;
2019/07/09 07:35:18;;;;;;;4.8;2;;;;;;;23.33;39.39063;1006.021;;;;
2019/07/09 07:37:43;;;;;;;4.3;2.6;;;;;;;23.36;38.36719;1005.939;;;;
2019/07/09 07:40:09;;;;;;;4.1;2.2;;;;;;;22.89;39.55176;1006.017;;;;
2019/07/09 07:42:34;;;;;;;2.7;1.8;;;;;;;23.15;39.78711;1005.938;;;;
2019/07/09 07:44:59;;;;;;;4.9;2.3;;;;;;;24.45;36.9375;1006.018;;;;
2019/07/09 07:47:24;;;;;;;3.5;2.1;;;;;;;24.79;35.8418;1005.991;;;;
2019/07/09 07:49:49;;;;;;;5.9;2.2;;;;;;;26.11;33.69434;1005.939;;;;
2019/07/09 07:52:14;;;;;;;4.4;2.3;;;;;;;24.41;35.75195;1006.029;;;;
2019/07/09 07:54:39;;;;;;;4.1;2.7;;;;;;;23.15;38.1377;1005.924;;;;
2019/07/09 07:57:04;;;;;;;5.2;2.7;;;;;;;23.24;37.96875;1005.939;;;;
2019/07/09 07:59:29;;;;;;;6.3;2.2;;;;;;;24.2;36.64453;1005.851;;;;
2019/07/09 08:01:54;;;;;;;4.9;2.1;;;;;;;23.85;36.5459;1005.891;;;;
2019/07/09 08:04:19;;;;;;;3.5;2.1;;;;;;;24.56;36.02441;1005.941;;;;
2019/07/09 08:06:45;;;;;;;4;1.5;;;;;;;24.39;34.71094;1005.923;;;;
2019/07/09 08:09:10;;;;;;;3;1.5;;;;;;;24.76;32.91895;1005.903;;;;
2019/07/09 08:11:35;;;;;;;2.1;1.5;;;;;;;24.58;33.875;1005.956;;;;
2019/07/09 08:14:03;;;;;;;3.5;1.7;;;;;;;24.72;34.40527;1005.88;;;;
2019/07/09 08:16:29;;;;;;;3.2;1.6;;;;;;;25.12;33.07617;1005.834;;;;
2019/07/09 08:18:52;;;;;;;3.2;1.6;;;;;;;25.84;32.00293;1005.89;;;;
2019/07/09 08:21:18;;;;;;;3.2;2.1;;;;;;;23.25;36.22559;1005.848;;;;
2019/07/09 08:23:43;;;;;;;2.6;1.7;;;;;;;21.88;39.21484;1005.843;;;;
2019/07/09 08:26:09;;;;;;;2.7;1.9;;;;;;;21.63;39.83887;1005.77;;;;
2019/07/09 08:28:34;;;;;;;3.1;2;;;;;;;20.88;42.77246;1005.772;;;;
2019/07/09 08:30:58;;;;;;;3.7;1.9;;;;;;;20.98;43.02832;1005.784;;;;
2019/07/09 08:33:23;;;;;;;3;2.1;;;;;;;21.3;42.02637;1005.806;;;;
2019/07/09 08:35:51;;;;;;;3.9;1.9;;;;;;;21.61;41.375;1005.855;;;;
2019/07/09 08:38:14;;;;;;;5.4;1.7;;;;;;;21.5;41.82324;1005.847;;;;
2019/07/09 08:40:40;;;;;;;2.7;1.8;;;;;;;21.66;41.50879;1005.858;;;;
2019/07/09 08:43:05;;;;;;;5.5;2.1;;;;;;;23.35;38.10742;1005.811;;;;
2019/07/09 08:45:29;;;;;;;3.7;1.9;;;;;;;26.28;32.23535;1005.85;;;;
2019/07/09 08:47:54;;;;;;;2.1;1.8;;;;;;;23.94;35.66797;1005.894;;;;
2019/07/09 08:50:20;;;;;;;4.2;1.8;;;;;;;23.61;36.06543;1005.864;;;;
2019/07/09 08:52:45;;;;;;;2.9;1.8;;;;;;;23.59;35.99316;1005.834;;;;
2019/07/09 08:55:11;;;;;;;2.8;1.9;;;;;;;24.11;35.31445;1005.883;;;;
2019/07/09 08:57:36;;;;;;;3.8;2.2;;;;;;;23.95;34.90039;1005.882;;;;
2019/07/09 09:00:01;;;;;;;4.1;2;;;;;;;24.26;34.53516;1005.848;;;;
2019/07/09 09:02:26;;;;;;;2.5;1.7;;;;;;;24.89;33.76855;1005.79;;;;
2019/07/09 09:04:51;;;;;;;3.4;1.8;;;;;;;25.91;31.33203;1005.812;;;;
2019/07/09 09:07:16;;;;;;;3.5;1.7;;;;;;;25.14;33.62207;1005.869;;;;
2019/07/09 09:09:41;;;;;;;4;1.8;;;;;;;24.42;34.28809;1005.915;;;;
2019/07/09 09:12:06;;;;;;;3.3;1.6;;;;;;;24.16;35.1543;1005.912;;;;
2019/07/09 09:14:31;;;;;;;2.3;1.8;;;;;;;22.94;37.07129;1005.848;;;;
2019/07/09 09:16:56;;;;;;;4;1.9;;;;;;;22.77;37.77441;1005.833;;;;
2019/07/09 09:19:24;;;;;;;3.7;1.9;;;;;;;22.85;37.51074;1005.854;;;;
2019/07/09 09:21:47;;;;;;;4;2;;;;;;;23.7;35.88379;1005.847;;;;
2019/07/09 09:24:14;;;;;;;3.9;1.8;;;;;;;24.79;33.93848;1005.783;;;;
2019/07/09 09:26:38;;;;;;;3.4;1.7;;;;;;;25.9;31.84082;1005.791;;;;
2019/07/09 09:29:02;;;;;;;4.1;1.8;;;;;;;25.48;31.82324;1005.738;;;;
2019/07/09 09:31:28;;;;;;;5;2.1;;;;;;;23.68;35.11523;1005.76;;;;
2019/07/09 09:33:53;;;;;;;2.3;1.7;;;;;;;23.34;36.16211;1005.756;;;;
2019/07/09 09:36:19;;;;;;;3.2;1.8;;;;;;;21.99;38.5791;1005.775;;;;
2019/07/09 09:38:44;;;;;;;6.7;3;;;;;;;22.49;38.10449;1005.796;;;;
2019/07/09 09:41:10;;;;;;;2.8;2.1;;;;;;;24.27;34.18164;1005.803;;;;
2019/07/09 09:43:34;;;;;;;3.1;2;;;;;;;25.95;31.15625;1005.708;;;;
2019/07/09 09:45:59;;;;;;;3.7;2;;;;;;;26.79;29.62402;1005.704;;;;
2019/07/09 09:48:24;;;;;;;3.1;2.3;;;;;;;25.15;31.89453;1005.672;;;;
2019/07/09 09:50:50;;;;;;;4.1;1.9;;;;;;;25.45;31.39453;1005.657;;;;
2019/07/09 09:53:16;;;;;;;2.9;1.7;;;;;;;25.42;31.72363;1005.604;;;;
2019/07/09 09:55:42;;;;;;;3.2;2;;;;;;;24.94;32.51758;1005.64;;;;
2019/07/09 09:58:07;;;;;;;3.2;2.1;;;;;;;24.05;33.50391;1005.637;;;;
2019/07/09 10:00:32;;;;;;;4.1;2.2;;;;;;;24.13;34.26563;1005.65;;;;
2019/07/09 10:03:01;;;;;;;5.1;2.4;;;;;;;24.02;33.70215;1005.617;;;;
2019/07/09 10:05:28;;;;;;;4;2.6;;;;;;;24.12;33.01367;1005.687;;;;
2019/07/09 10:07:52;;;;;;;2.9;2.1;;;;;;;23.93;33.53027;1005.698;;;;
2019/07/09 10:10:17;;;;;;;4.1;2.1;;;;;;;24.13;33.12012;1005.779;;;;
2019/07/09 10:12:44;;;;;;;9.8;2.5;;;;;;;25.75;31.00098;1005.757;;;;
2019/07/09 10:15:09;;;;;;;4.1;2.3;;;;;;;24.79;31.21875;1005.813;;;;
2019/07/09 10:17:34;;;;;;;4.6;2.3;;;;;;;23.37;34.08984;1005.812;;;;
2019/07/09 10:19:59;;;;;;;3.7;2.3;;;;;;;23.57;33.77441;1005.788;;;;
2019/07/09 10:22:24;;;;;;;3.6;2.4;;;;;;;23.87;32.58203;1005.719;;;;
2019/07/09 10:24:49;;;;;;;3.6;2.2;;;;;;;24.16;32.89746;1005.786;;;;
2019/07/09 10:27:19;;;;;;;4.6;2.4;;;;;;;23.67;33.80566;1005.734;;;;
2019/07/09 10:29:43;;;;;;;5.4;2.6;;;;;;;24.17;32.98145;1005.735;;;;
2019/07/09 10:32:09;;;;;;;4.7;2.5;;;;;;;25.15;31.63379;1005.692;;;;
2019/07/09 10:34:35;;;;;;;4.4;2.1;;;;;;;25.43;30.49316;1005.69;;;;
2019/07/09 10:36:58;;;;;;;3.8;1.7;;;;;;;24.74;32.05371;1005.8;;;;
2019/07/09 10:39:26;;;;;;;4.4;2.2;;;;;;;24.07;33.56445;1005.823;;;;
2019/07/09 10:41:51;;;;;;;4.8;2.4;;;;;;;23.9;33.55078;1005.827;;;;
2019/07/09 10:44:17;;;;;;;4;2.3;;;;;;;23.51;34.6543;1005.81;;;;
2019/07/09 10:46:42;;;;;;;3.8;2.2;;;;;;;24.33;32.74512;1005.88;;;;
2019/07/09 10:49:06;;;;;;;5;2.3;;;;;;;24.46;33.36914;1005.852;;;;
2019/07/09 10:51:32;;;;;;;4.2;2.3;;;;;;;24.13;33.42676;1005.849;;;;
2019/07/09 10:53:58;;;;;;;10;2.5;;;;;;;24.91;32.51563;1005.855;;;;
2019/07/09 10:56:23;;;;;;;5.6;2.4;;;;;;;24.51;32.71094;1005.877;;;;
2019/07/09 10:58:46;;;;;;;8.8;2.4;;;;;;;24.71;32.57227;1005.873;;;;
2019/07/09 11:01:13;;;;;;;4.9;2.4;;;;;;;24.54;32.35938;1005.787;;;;
2019/07/09 11:03:38;;;;;;;4.8;2.7;;;;;;;24.94;31.42969;1005.857;;;;
2019/07/09 11:06:03;;;;;;;4.7;2.2;;;;;;;24.76;32.02051;1005.842;;;;
2019/07/09 11:08:39;;;;;;;4.3;2.1;;;;;;;25.14;31.58594;1005.885;;;;
2019/07/09 11:10:57;;;;;;;4.2;2;;;;;;;24.77;31.33496;1005.91;;;;
2019/07/09 11:13:23;;;;;;;4.8;1.9;;;;;;;24.75;31.51074;1005.858;;;;
2019/07/09 11:15:50;;;;;;;4.1;2;;;;;;;24.8;31.3252;1005.859;;;;
2019/07/09 11:18:12;;;;;;;3.7;2.1;;;;;;;24.88;31.40234;1005.816;;;;
2019/07/09 11:20:37;;;;;;;4.1;2;;;;;;;24.86;31.41211;1005.861;;;;
2019/07/09 11:23:02;;;;;;;2.2;1.5;;;;;;;25.23;30.89453;1005.844;;;;
2019/07/09 11:25:27;;;;;;;3;1.6;;;;;;;24.92;31.53516;1005.823;;;;
2019/07/09 11:27:53;;;;;;;8.9;1.7;;;;;;;25.16;31.10156;1005.869;;;;
2019/07/09 11:30:18;;;;;;;3.2;1.8;;;;;;;25.12;30.94531;1005.79;;;;
2019/07/09 11:32:44;;;;;;;4;1.6;;;;;;;24.58;32.04297;1005.79;;;;
2019/07/09 11:35:09;;;;;;;2.5;1.7;;;;;;;24.79;31.33691;1005.748;;;;
2019/07/09 11:37:36;;;;;;;2.3;1.5;;;;;;;24.16;32.2373;1005.73;;;;
2019/07/09 11:40:02;;;;;;;3.1;2.1;;;;;;;24.03;32.6416;1005.792;;;;
2019/07/09 11:42:27;;;;;;;3.3;2;;;;;;;23.49;33.37891;1005.735;;;;
2019/07/09 11:44:53;;;;;;;4;1.9;;;;;;;23.15;33.75488;1005.712;;;;
2019/07/09 11:47:21;;;;;;;2.9;1.8;;;;;;;24.34;31.49316;1005.71;;;;
2019/07/09 11:49:44;;;;;;;2.9;1.4;;;;;;;25.52;30.13184;1005.717;;;;
2019/07/09 11:52:08;;;;;;;3.3;1.5;;;;;;;25.14;29.46777;1005.726;;;;
2019/07/09 11:54:34;;;;;;;2.8;1.5;;;;;;;24.42;30.75488;1005.802;;;;
2019/07/09 11:57:01;;;;;;;4.7;1.5;;;;;;;25.17;29.6709;1005.752;;;;
2019/07/09 11:59:24;;;;;;;3.8;1.5;;;;;;;25.1;28.9082;1005.782;;;;
2019/07/09 12:01:51;;;;;;;2.3;1.3;;;;;;;25.32;28.55566;1005.702;;;;
2019/07/09 12:04:23;;;;;;;2.5;1.3;;;;;;;25.51;27.8457;1005.747;;;;
2019/07/09 12:06:48;;;;;;;3;1;;;;;;;25.25;28.30273;1005.635;;;;
2019/07/09 12:09:12;;;;;;;4.5;1.3;;;;;;;25.27;27.87891;1005.609;;;;
2019/07/09 12:11:37;;;;;;;2.4;0.9;;;;;;;25.68;27.07422;1005.668;;;;
2019/07/09 12:14:02;;;;;;;2.2;1;;;;;;;24.92;27.83203;1005.759;;;;
2019/07/09 12:16:27;;;;;;;3.2;1;;;;;;;24.73;27.69043;1005.652;;;;
2019/07/09 12:18:53;;;;;;;2;0.9;;;;;;;24.57;28.02344;1005.62;;;;
2019/07/09 12:21:20;;;;;;;3.1;1.7;;;;;;;24.85;28.84473;1005.655;;;;
2019/07/09 12:23:47;;;;;;;3;1.1;;;;;;;24.98;28.19043;1005.646;;;;
2019/07/09 12:26:10;;;;;;;1.4;1;;;;;;;25.08;27.55762;1005.622;;;;
2019/07/09 12:28:35;;;;;;;2;0.9;;;;;;;24.87;27.46289;1005.657;;;;
2019/07/09 12:31:00;;;;;;;2.3;0.8;;;;;;;25.02;26.76172;1005.611;;;;
2019/07/09 12:33:26;;;;;;;1.8;0.9;;;;;;;24.45;26.38574;1005.558;;;;
2019/07/09 12:35:51;;;;;;;1.8;1;;;;;;;24.39;27.01953;1005.494;;;;
2019/07/09 12:38:19;;;;;;;2.4;0.9;;;;;;;24.5;27.13281;1005.453;;;;
2019/07/09 12:40:43;;;;;;;1.9;1.2;;;;;;;24.4;27.97656;1005.453;;;;
2019/07/09 12:43:09;;;;;;;5;1.1;;;;;;;25;27.77832;1005.42;;;;
2019/07/09 12:45:34;;;;;;;4;1;;;;;;;25.17;27.43457;1005.412;;;;
2019/07/09 12:47:59;;;;;;;1.1;1;;;;;;;24.86;28.16016;1005.422;;;;
2019/07/09 12:50:24;;;;;;;1.6;0.9;;;;;;;24.19;29.5459;1005.418;;;;
2019/07/09 12:52:50;;;;;;;2.4;1;;;;;;;24.57;28.30762;1005.421;;;;
2019/07/09 12:55:14;;;;;;;1.8;0.9;;;;;;;24.46;28.66602;1005.299;;;;
2019/07/09 12:57:39;;;;;;;5;1;;;;;;;24.54;28.69531;1005.256;;;;
2019/07/09 13:00:06;;;;;;;1.8;0.8;;;;;;;24.54;28.44727;1005.243;;;;
2019/07/09 13:02:30;;;;;;;1.4;0.9;;;;;;;24.68;28.97559;1005.185;;;;
2019/07/09 13:04:56;;;;;;;3.3;1.2;;;;;;;24.96;28.54395;1005.235;;;;
2019/07/09 13:07:19;;;;;;;2.1;1.1;;;;;;;24.62;29.11328;1005.273;;;;
2019/07/09 13:09:47;;;;;;;3.1;1.3;;;;;;;23.23;31.08496;1005.3;;;;
2019/07/09 13:12:10;;;;;;;2.5;1.1;;;;;;;22.77;32.19531;1005.278;;;;
2019/07/09 13:14:35;;;;;;;5;1.6;;;;;;;22.55;32.49805;1005.186;;;;
2019/07/09 13:17:00;;;;;;;1.8;1.1;;;;;;;22.11;32.87598;1005.222;;;;
2019/07/09 13:19:26;;;;;;;3.9;1.3;;;;;;;22.07;33.75488;1005.141;;;;
2019/07/09 13:21:53;;;;;;;2;1.1;;;;;;;22.21;33.53027;1005.211;;;;
2019/07/09 13:24:17;;;;;;;4.1;1.2;;;;;;;22.9;32.33398;1005.228;;;;
2019/07/09 13:26:43;;;;;;;2.1;1.1;;;;;;;23.4;31.2627;1005.237;;;;
2019/07/09 13:29:07;;;;;;;3.7;1.4;;;;;;;23.21;30.80078;1005.131;;;;
2019/07/09 13:31:32;;;;;;;1.4;1.2;;;;;;;23;31.51758;1005.163;;;;
2019/07/09 13:33:58;;;;;;;1.5;1.1;;;;;;;22.95;31.70215;1005.08;;;;
2019/07/09 13:36:23;;;;;;;2.3;1.1;;;;;;;22.61;31.30176;1005.041;;;;
2019/07/09 13:38:49;;;;;;;2.2;1.3;;;;;;;22.55;31.50977;1005.096;;;;
2019/07/09 13:41:13;;;;;;;2;1;;;;;;;22.73;31.10938;1004.98;;;;
2019/07/09 13:43:38;;;;;;;5.6;1.1;;;;;;;22.83;30.9043;1004.987;;;;
2019/07/09 13:46:04;;;;;;;3;1.4;;;;;;;22.68;32.11816;1004.913;;;;
2019/07/09 13:48:29;;;;;;;2.7;1;;;;;;;23.22;30.18945;1004.92;;;;
2019/07/09 13:50:55;;;;;;;2.8;0.8;;;;;;;22.84;31.05859;1004.961;;;;
2019/07/09 13:53:18;;;;;;;3.1;1;;;;;;;23;30.79883;1004.957;;;;
2019/07/09 13:55:44;;;;;;;1.7;0.8;;;;;;;22.71;31.32031;1004.932;;;;
2019/07/09 13:58:12;;;;;;;1.4;0.8;;;;;;;22.74;31.53418;1004.901;;;;
2019/07/09 14:00:35;;;;;;;2.5;0.9;;;;;;;23.23;31.03809;1004.953;;;;
2019/07/09 14:03:00;;;;;;;3.2;0.8;;;;;;;23.26;30.63965;1004.963;;;;
2019/07/09 14:05:26;;;;;;;3.2;1;;;;;;;22.81;30.84473;1005.034;;;;
2019/07/09 14:07:50;;;;;;;2.2;0.9;;;;;;;22.72;31.00293;1004.937;;;;
2019/07/09 14:10:15;;;;;;;2.8;0.8;;;;;;;22.49;31.55176;1004.917;;;;
2019/07/09 14:12:41;;;;;;;2.1;0.9;;;;;;;22.47;31.64453;1005.076;;;;
2019/07/09 14:15:06;;;;;;;3.4;0.7;;;;;;;22.3;31.73828;1005.025;;;;
2019/07/09 14:17:31;;;;;;;1.7;0.8;;;;;;;22;31.50488;1004.991;;;;